sensor_id;sensor_type;location;lat;lon;timestamp;P1;durP1;ratioP1;P2;durP2;ratioP2
47161;SDS011;32921;53.256;8.198;2023-05-02T00:01:03;25.50;;;15.75;;
47161;SDS011;32921;53.256;8.198;2023-05-02T00:03:29;29.52;;;16.20;;
47161;SDS011;32921;53.256;8.198;2023-05-02T00:05:56;28.90;;;16.20;;
47161;SDS011;32921;53.256;8.198;2023-05-02T00:08:23;27.42;;;15.45;;
47161;SDS011;32921;53.256;8.198;2023-05-02T00:10:49;28.75;;;15.45;;
47161;SDS011;32921;53.256;8.198;2023-05-02T00:13:14;28.52;;;14.95;;
47161;SDS011;32921;53.256;8.198;2023-05-02T00:15:40;27.17;;;16.08;;
47161;SDS011;32921;53.256;8.198;2023-05-02T00:18:05;33.95;;;16.55;;
47161;SDS011;32921;53.256;8.198;2023-05-02T00:20:31;32.22;;;16.08;;
47161;SDS011;32921;53.256;8.198;2023-05-02T00:22:57;34.10;;;16.52;;
47161;SDS011;32921;53.256;8.198;2023-05-02T00:25:22;34.35;;;16.52;;
47161;SDS011;32921;53.256;8.198;2023-05-02T00:27:48;35.00;;;16.80;;
47161;SDS011;32921;53.256;8.198;2023-05-02T00:30:15;30.95;;;16.10;;
47161;SDS011;32921;53.256;8.198;2023-05-02T00:32:42;34.63;;;17.08;;
47161;SDS011;32921;53.256;8.198;2023-05-02T00:35:07;33.80;;;16.83;;
47161;SDS011;32921;53.256;8.198;2023-05-02T00:37:33;35.15;;;17.65;;
47161;SDS011;32921;53.256;8.198;2023-05-02T00:39:59;32.85;;;16.33;;
47161;SDS011;32921;53.256;8.198;2023-05-02T00:42:25;35.05;;;16.25;;
47161;SDS011;32921;53.256;8.198;2023-05-02T00:44:53;38.35;;;17.13;;
47161;SDS011;32921;53.256;8.198;2023-05-02T00:47:18;36.72;;;16.25;;
47161;SDS011;32921;53.256;8.198;2023-05-02T00:49:44;37.90;;;16.73;;
47161;SDS011;32921;53.256;8.198;2023-05-02T00:52:10;34.28;;;15.93;;
47161;SDS011;32921;53.256;8.198;2023-05-02T00:54:36;37.50;;;16.05;;
47161;SDS011;32921;53.256;8.198;2023-05-02T00:57:05;34.85;;;16.27;;
47161;SDS011;32921;53.256;8.198;2023-05-02T00:59:31;36.50;;;16.23;;
47161;SDS011;32921;53.256;8.198;2023-05-02T01:02:04;36.22;;;16.73;;
47161;SDS011;32921;53.256;8.198;2023-05-02T01:12:45;15.13;;;7.30;;
47161;SDS011;32921;53.256;8.198;2023-05-02T01:15:32;9.13;;;4.45;;
47161;SDS011;32921;53.256;8.198;2023-05-02T01:18:01;11.65;;;4.85;;
47161;SDS011;32921;53.256;8.198;2023-05-02T01:20:29;8.98;;;4.35;;
47161;SDS011;32921;53.256;8.198;2023-05-02T01:23:02;8.07;;;3.30;;
47161;SDS011;32921;53.256;8.198;2023-05-02T01:25:39;7.50;;;4.30;;
47161;SDS011;32921;53.256;8.198;2023-05-02T01:31:23;9.90;;;4.38;;
47161;SDS011;32921;53.256;8.198;2023-05-02T01:33:52;7.22;;;3.80;;
47161;SDS011;32921;53.256;8.198;2023-05-02T01:36:19;5.55;;;3.50;;
47161;SDS011;32921;53.256;8.198;2023-05-02T01:38:47;6.70;;;3.33;;
47161;SDS011;32921;53.256;8.198;2023-05-02T01:41:14;6.32;;;2.65;;
47161;SDS011;32921;53.256;8.198;2023-05-02T01:43:41;6.90;;;2.90;;
47161;SDS011;32921;53.256;8.198;2023-05-02T01:46:07;9.95;;;3.47;;
47161;SDS011;32921;53.256;8.198;2023-05-02T01:48:34;10.00;;;2.78;;
47161;SDS011;32921;53.256;8.198;2023-05-02T01:51:00;12.63;;;4.13;;
47161;SDS011;32921;53.256;8.198;2023-05-02T01:53:27;12.88;;;3.97;;
47161;SDS011;32921;53.256;8.198;2023-05-02T01:55:54;11.93;;;4.45;;
47161;SDS011;32921;53.256;8.198;2023-05-02T01:58:23;15.73;;;4.70;;
47161;SDS011;32921;53.256;8.198;2023-05-02T02:00:52;20.50;;;4.45;;
47161;SDS011;32921;53.256;8.198;2023-05-02T02:03:18;14.50;;;4.32;;
47161;SDS011;32921;53.256;8.198;2023-05-02T02:05:45;17.10;;;4.63;;
47161;SDS011;32921;53.256;8.198;2023-05-02T02:08:13;14.00;;;4.05;;
47161;SDS011;32921;53.256;8.198;2023-05-02T02:10:39;17.92;;;5.15;;
47161;SDS011;32921;53.256;8.198;2023-05-02T02:13:23;14.55;;;4.80;;
47161;SDS011;32921;53.256;8.198;2023-05-02T02:15:56;18.98;;;5.90;;
47161;SDS011;32921;53.256;8.198;2023-05-02T02:18:25;21.02;;;4.57;;
47161;SDS011;32921;53.256;8.198;2023-05-02T02:20:53;18.90;;;4.47;;
47161;SDS011;32921;53.256;8.198;2023-05-02T02:23:20;19.02;;;4.40;;
47161;SDS011;32921;53.256;8.198;2023-05-02T02:25:49;15.82;;;4.03;;
47161;SDS011;32921;53.256;8.198;2023-05-02T02:28:18;15.88;;;4.03;;
47161;SDS011;32921;53.256;8.198;2023-05-02T02:30:43;18.23;;;4.20;;
47161;SDS011;32921;53.256;8.198;2023-05-02T02:33:09;15.82;;;3.88;;
47161;SDS011;32921;53.256;8.198;2023-05-02T02:35:41;16.60;;;3.45;;
47161;SDS011;32921;53.256;8.198;2023-05-02T02:38:19;17.73;;;3.95;;
47161;SDS011;32921;53.256;8.198;2023-05-02T02:40:58;22.65;;;3.40;;
47161;SDS011;32921;53.256;8.198;2023-05-02T02:43:58;13.77;;;3.20;;
47161;SDS011;32921;53.256;8.198;2023-05-02T02:46:38;20.08;;;3.72;;
47161;SDS011;32921;53.256;8.198;2023-05-02T02:54:55;26.85;;;5.28;;
47161;SDS011;32921;53.256;8.198;2023-05-02T02:57:32;20.45;;;4.53;;
47161;SDS011;32921;53.256;8.198;2023-05-02T03:00:09;30.58;;;5.57;;
47161;SDS011;32921;53.256;8.198;2023-05-02T03:02:40;30.98;;;5.72;;
47161;SDS011;32921;53.256;8.198;2023-05-02T03:05:07;28.85;;;4.50;;
47161;SDS011;32921;53.256;8.198;2023-05-02T03:07:34;25.90;;;4.22;;
47161;SDS011;32921;53.256;8.198;2023-05-02T03:10:01;14.95;;;3.20;;
47161;SDS011;32921;53.256;8.198;2023-05-02T03:12:29;20.92;;;4.03;;
47161;SDS011;32921;53.256;8.198;2023-05-02T03:14:55;29.23;;;4.20;;
47161;SDS011;32921;53.256;8.198;2023-05-02T03:17:30;18.70;;;4.53;;
47161;SDS011;32921;53.256;8.198;2023-05-02T03:19:55;23.45;;;4.57;;
47161;SDS011;32921;53.256;8.198;2023-05-02T03:22:21;31.45;;;4.50;;
47161;SDS011;32921;53.256;8.198;2023-05-02T03:24:46;22.73;;;4.53;;
47161;SDS011;32921;53.256;8.198;2023-05-02T03:27:12;25.13;;;4.43;;
47161;SDS011;32921;53.256;8.198;2023-05-02T03:29:37;21.80;;;4.40;;
47161;SDS011;32921;53.256;8.198;2023-05-02T03:32:03;18.27;;;3.78;;
47161;SDS011;32921;53.256;8.198;2023-05-02T03:34:29;24.17;;;4.63;;
47161;SDS011;32921;53.256;8.198;2023-05-02T03:36:55;21.23;;;4.53;;
47161;SDS011;32921;53.256;8.198;2023-05-02T03:39:20;21.05;;;3.88;;
47161;SDS011;32921;53.256;8.198;2023-05-02T03:41:46;23.13;;;3.88;;
47161;SDS011;32921;53.256;8.198;2023-05-02T03:44:11;21.58;;;4.35;;
47161;SDS011;32921;53.256;8.198;2023-05-02T03:46:37;19.35;;;3.70;;
47161;SDS011;32921;53.256;8.198;2023-05-02T03:49:03;17.00;;;4.65;;
47161;SDS011;32921;53.256;8.198;2023-05-02T03:51:28;17.55;;;4.15;;
47161;SDS011;32921;53.256;8.198;2023-05-02T03:53:54;17.48;;;4.13;;
47161;SDS011;32921;53.256;8.198;2023-05-02T03:56:19;22.75;;;5.15;;
47161;SDS011;32921;53.256;8.198;2023-05-02T03:58:45;23.95;;;4.97;;
47161;SDS011;32921;53.256;8.198;2023-05-02T04:01:12;20.02;;;3.83;;
47161;SDS011;32921;53.256;8.198;2023-05-02T04:03:39;17.65;;;3.72;;
47161;SDS011;32921;53.256;8.198;2023-05-02T04:06:04;19.50;;;4.63;;
47161;SDS011;32921;53.256;8.198;2023-05-02T04:08:30;26.20;;;4.80;;
47161;SDS011;32921;53.256;8.198;2023-05-02T04:10:56;14.98;;;3.88;;
47161;SDS011;32921;53.256;8.198;2023-05-02T04:13:22;20.58;;;4.20;;
47161;SDS011;32921;53.256;8.198;2023-05-02T04:15:48;22.02;;;3.97;;
47161;SDS011;32921;53.256;8.198;2023-05-02T04:18:13;11.60;;;2.75;;
47161;SDS011;32921;53.256;8.198;2023-05-02T04:20:41;21.83;;;4.32;;
47161;SDS011;32921;53.256;8.198;2023-05-02T04:23:08;23.25;;;4.50;;
47161;SDS011;32921;53.256;8.198;2023-05-02T04:25:33;19.80;;;4.47;;
47161;SDS011;32921;53.256;8.198;2023-05-02T04:27:59;22.80;;;4.30;;
47161;SDS011;32921;53.256;8.198;2023-05-02T04:30:24;26.15;;;4.85;;
47161;SDS011;32921;53.256;8.198;2023-05-02T04:32:50;17.20;;;3.97;;
47161;SDS011;32921;53.256;8.198;2023-05-02T04:35:16;23.88;;;4.38;;
47161;SDS011;32921;53.256;8.198;2023-05-02T04:37:42;23.38;;;4.60;;
47161;SDS011;32921;53.256;8.198;2023-05-02T04:40:07;27.40;;;4.30;;
47161;SDS011;32921;53.256;8.198;2023-05-02T04:42:33;21.73;;;3.70;;
47161;SDS011;32921;53.256;8.198;2023-05-02T04:44:59;29.08;;;3.63;;
47161;SDS011;32921;53.256;8.198;2023-05-02T04:47:25;28.90;;;4.20;;
47161;SDS011;32921;53.256;8.198;2023-05-02T04:49:50;14.73;;;3.38;;
47161;SDS011;32921;53.256;8.198;2023-05-02T04:52:16;21.90;;;3.40;;
47161;SDS011;32921;53.256;8.198;2023-05-02T04:54:42;19.13;;;3.85;;
47161;SDS011;32921;53.256;8.198;2023-05-02T04:57:08;32.45;;;4.82;;
47161;SDS011;32921;53.256;8.198;2023-05-02T04:59:34;21.60;;;3.53;;
47161;SDS011;32921;53.256;8.198;2023-05-02T05:02:00;19.70;;;3.65;;
47161;SDS011;32921;53.256;8.198;2023-05-02T05:04:26;23.00;;;3.75;;
47161;SDS011;32921;53.256;8.198;2023-05-02T05:06:52;16.30;;;3.13;;
47161;SDS011;32921;53.256;8.198;2023-05-02T05:09:18;20.05;;;3.88;;
47161;SDS011;32921;53.256;8.198;2023-05-02T05:11:44;14.05;;;3.22;;
47161;SDS011;32921;53.256;8.198;2023-05-02T05:14:12;16.02;;;3.30;;
47161;SDS011;32921;53.256;8.198;2023-05-02T05:16:38;17.90;;;3.10;;
47161;SDS011;32921;53.256;8.198;2023-05-02T05:19:03;14.77;;;3.83;;
47161;SDS011;32921;53.256;8.198;2023-05-02T05:21:29;19.10;;;4.00;;
47161;SDS011;32921;53.256;8.198;2023-05-02T05:23:55;21.90;;;3.85;;
47161;SDS011;32921;53.256;8.198;2023-05-02T05:26:20;17.13;;;3.85;;
47161;SDS011;32921;53.256;8.198;2023-05-02T05:28:47;19.85;;;3.60;;
47161;SDS011;32921;53.256;8.198;2023-05-02T05:31:14;18.75;;;3.65;;
47161;SDS011;32921;53.256;8.198;2023-05-02T05:33:41;20.10;;;4.07;;
47161;SDS011;32921;53.256;8.198;2023-05-02T05:36:08;16.42;;;3.30;;
47161;SDS011;32921;53.256;8.198;2023-05-02T05:38:35;18.92;;;3.28;;
47161;SDS011;32921;53.256;8.198;2023-05-02T05:41:04;20.45;;;4.03;;
47161;SDS011;32921;53.256;8.198;2023-05-02T05:43:31;16.20;;;3.47;;
47161;SDS011;32921;53.256;8.198;2023-05-02T05:45:57;18.95;;;3.80;;
47161;SDS011;32921;53.256;8.198;2023-05-02T05:48:22;16.23;;;3.40;;
47161;SDS011;32921;53.256;8.198;2023-05-02T05:50:48;13.13;;;2.85;;
47161;SDS011;32921;53.256;8.198;2023-05-02T05:53:14;21.67;;;4.10;;
47161;SDS011;32921;53.256;8.198;2023-05-02T05:55:40;14.80;;;3.13;;
47161;SDS011;32921;53.256;8.198;2023-05-02T05:58:06;14.63;;;3.25;;
47161;SDS011;32921;53.256;8.198;2023-05-02T06:00:35;17.60;;;3.10;;
47161;SDS011;32921;53.256;8.198;2023-05-02T06:03:02;11.55;;;2.22;;
47161;SDS011;32921;53.256;8.198;2023-05-02T06:05:28;18.10;;;3.13;;
47161;SDS011;32921;53.256;8.198;2023-05-02T06:07:54;7.93;;;2.22;;
47161;SDS011;32921;53.256;8.198;2023-05-02T06:10:20;14.57;;;3.72;;
47161;SDS011;32921;53.256;8.198;2023-05-02T06:12:46;18.15;;;3.63;;
47161;SDS011;32921;53.256;8.198;2023-05-02T06:15:11;17.50;;;3.80;;
47161;SDS011;32921;53.256;8.198;2023-05-02T06:17:37;11.75;;;2.88;;
47161;SDS011;32921;53.256;8.198;2023-05-02T06:20:02;13.13;;;3.50;;
47161;SDS011;32921;53.256;8.198;2023-05-02T06:22:28;15.40;;;2.88;;
47161;SDS011;32921;53.256;8.198;2023-05-02T06:24:54;16.67;;;3.00;;
47161;SDS011;32921;53.256;8.198;2023-05-02T06:27:20;19.25;;;3.40;;
47161;SDS011;32921;53.256;8.198;2023-05-02T06:29:45;12.30;;;2.65;;
47161;SDS011;32921;53.256;8.198;2023-05-02T06:32:11;13.88;;;2.80;;
47161;SDS011;32921;53.256;8.198;2023-05-02T06:34:36;12.88;;;2.78;;
47161;SDS011;32921;53.256;8.198;2023-05-02T06:37:02;13.23;;;2.70;;
47161;SDS011;32921;53.256;8.198;2023-05-02T06:39:27;12.77;;;2.92;;
47161;SDS011;32921;53.256;8.198;2023-05-02T06:41:56;15.63;;;2.83;;
47161;SDS011;32921;53.256;8.198;2023-05-02T06:44:22;17.35;;;2.60;;
47161;SDS011;32921;53.256;8.198;2023-05-02T06:46:48;10.35;;;2.60;;
47161;SDS011;32921;53.256;8.198;2023-05-02T06:49:14;10.77;;;2.88;;
47161;SDS011;32921;53.256;8.198;2023-05-02T06:51:40;12.90;;;2.92;;
47161;SDS011;32921;53.256;8.198;2023-05-02T06:54:05;12.68;;;3.22;;
47161;SDS011;32921;53.256;8.198;2023-05-02T06:56:31;15.40;;;2.60;;
47161;SDS011;32921;53.256;8.198;2023-05-02T06:58:56;11.77;;;2.72;;
47161;SDS011;32921;53.256;8.198;2023-05-02T07:01:22;14.35;;;3.00;;
47161;SDS011;32921;53.256;8.198;2023-05-02T07:03:48;15.82;;;3.42;;
47161;SDS011;32921;53.256;8.198;2023-05-02T07:06:13;12.63;;;2.53;;
47161;SDS011;32921;53.256;8.198;2023-05-02T07:08:39;12.23;;;2.95;;
47161;SDS011;32921;53.256;8.198;2023-05-02T07:11:05;15.98;;;3.20;;
47161;SDS011;32921;53.256;8.198;2023-05-02T07:13:31;10.38;;;2.40;;
47161;SDS011;32921;53.256;8.198;2023-05-02T07:15:56;9.57;;;2.80;;
47161;SDS011;32921;53.256;8.198;2023-05-02T07:18:22;17.85;;;3.00;;
47161;SDS011;32921;53.256;8.198;2023-05-02T07:20:48;14.00;;;2.80;;
47161;SDS011;32921;53.256;8.198;2023-05-02T07:23:14;15.73;;;3.00;;
47161;SDS011;32921;53.256;8.198;2023-05-02T07:25:39;13.73;;;3.13;;
47161;SDS011;32921;53.256;8.198;2023-05-02T07:28:05;14.32;;;2.42;;
47161;SDS011;32921;53.256;8.198;2023-05-02T07:30:31;10.40;;;2.10;;
47161;SDS011;32921;53.256;8.198;2023-05-02T07:32:57;7.82;;;2.28;;
47161;SDS011;32921;53.256;8.198;2023-05-02T07:35:22;9.65;;;2.28;;
47161;SDS011;32921;53.256;8.198;2023-05-02T07:37:48;13.45;;;2.92;;
47161;SDS011;32921;53.256;8.198;2023-05-02T07:40:13;15.70;;;2.75;;
47161;SDS011;32921;53.256;8.198;2023-05-02T07:42:39;9.15;;;3.03;;
47161;SDS011;32921;53.256;8.198;2023-05-02T07:45:05;11.52;;;3.17;;
47161;SDS011;32921;53.256;8.198;2023-05-02T07:47:31;12.15;;;3.10;;
47161;SDS011;32921;53.256;8.198;2023-05-02T07:49:57;9.93;;;2.28;;
47161;SDS011;32921;53.256;8.198;2023-05-02T07:52:23;11.30;;;2.70;;
47161;SDS011;32921;53.256;8.198;2023-05-02T07:54:49;14.00;;;2.95;;
47161;SDS011;32921;53.256;8.198;2023-05-02T07:57:15;11.32;;;2.38;;
47161;SDS011;32921;53.256;8.198;2023-05-02T07:59:40;11.48;;;2.47;;
47161;SDS011;32921;53.256;8.198;2023-05-02T08:02:06;9.80;;;2.42;;
47161;SDS011;32921;53.256;8.198;2023-05-02T08:04:32;8.02;;;2.05;;
47161;SDS011;32921;53.256;8.198;2023-05-02T08:06:58;8.73;;;2.83;;
47161;SDS011;32921;53.256;8.198;2023-05-02T08:09:24;9.43;;;2.35;;
47161;SDS011;32921;53.256;8.198;2023-05-02T08:11:50;10.70;;;1.95;;
47161;SDS011;32921;53.256;8.198;2023-05-02T08:14:16;17.58;;;1.90;;
47161;SDS011;32921;53.256;8.198;2023-05-02T08:16:42;4.20;;;1.45;;
47161;SDS011;32921;53.256;8.198;2023-05-02T08:19:07;8.88;;;1.60;;
47161;SDS011;32921;53.256;8.198;2023-05-02T08:21:33;5.53;;;1.38;;
47161;SDS011;32921;53.256;8.198;2023-05-02T08:23:59;4.75;;;1.27;;
47161;SDS011;32921;53.256;8.198;2023-05-02T08:26:25;4.07;;;0.90;;
47161;SDS011;32921;53.256;8.198;2023-05-02T08:28:52;4.47;;;1.13;;
47161;SDS011;32921;53.256;8.198;2023-05-02T08:31:18;7.63;;;1.73;;
47161;SDS011;32921;53.256;8.198;2023-05-02T08:33:44;6.65;;;1.13;;
47161;SDS011;32921;53.256;8.198;2023-05-02T08:36:13;6.07;;;1.20;;
47161;SDS011;32921;53.256;8.198;2023-05-02T08:38:40;4.20;;;1.10;;
47161;SDS011;32921;53.256;8.198;2023-05-02T08:41:09;3.15;;;1.13;;
47161;SDS011;32921;53.256;8.198;2023-05-02T08:43:36;6.80;;;1.38;;
47161;SDS011;32921;53.256;8.198;2023-05-02T08:46:04;7.72;;;1.60;;
47161;SDS011;32921;53.256;8.198;2023-05-02T08:48:34;5.45;;;1.20;;
47161;SDS011;32921;53.256;8.198;2023-05-02T08:51:05;7.60;;;1.13;;
47161;SDS011;32921;53.256;8.198;2023-05-02T08:53:33;9.32;;;1.45;;
47161;SDS011;32921;53.256;8.198;2023-05-02T08:55:59;5.15;;;1.35;;
47161;SDS011;32921;53.256;8.198;2023-05-02T08:58:25;4.82;;;1.42;;
47161;SDS011;32921;53.256;8.198;2023-05-02T09:00:51;7.78;;;1.33;;
47161;SDS011;32921;53.256;8.198;2023-05-02T09:03:22;6.70;;;1.42;;
47161;SDS011;32921;53.256;8.198;2023-05-02T09:05:58;6.05;;;1.10;;
47161;SDS011;32921;53.256;8.198;2023-05-02T09:08:37;10.45;;;1.65;;
47161;SDS011;32921;53.256;8.198;2023-05-02T09:11:03;6.95;;;1.33;;
47161;SDS011;32921;53.256;8.198;2023-05-02T09:13:48;12.23;;;1.80;;
47161;SDS011;32921;53.256;8.198;2023-05-02T09:16:18;5.93;;;1.17;;
47161;SDS011;32921;53.256;8.198;2023-05-02T09:18:49;5.63;;;1.33;;
47161;SDS011;32921;53.256;8.198;2023-05-02T09:21:20;6.30;;;1.35;;
47161;SDS011;32921;53.256;8.198;2023-05-02T09:23:48;5.93;;;1.30;;
47161;SDS011;32921;53.256;8.198;2023-05-02T09:26:19;2.92;;;0.90;;
47161;SDS011;32921;53.256;8.198;2023-05-02T09:28:51;4.07;;;1.17;;
47161;SDS011;32921;53.256;8.198;2023-05-02T09:31:28;8.10;;;1.38;;
47161;SDS011;32921;53.256;8.198;2023-05-02T09:33:57;2.60;;;0.93;;
47161;SDS011;32921;53.256;8.198;2023-05-02T09:36:39;5.43;;;1.20;;
47161;SDS011;32921;53.256;8.198;2023-05-02T09:39:10;4.18;;;1.13;;
47161;SDS011;32921;53.256;8.198;2023-05-02T09:41:39;3.70;;;1.10;;
47161;SDS011;32921;53.256;8.198;2023-05-02T09:44:10;4.00;;;1.02;;
47161;SDS011;32921;53.256;8.198;2023-05-02T09:47:10;6.70;;;1.38;;
47161;SDS011;32921;53.256;8.198;2023-05-02T09:49:40;5.47;;;1.40;;
47161;SDS011;32921;53.256;8.198;2023-05-02T09:52:12;8.02;;;1.15;;
47161;SDS011;32921;53.256;8.198;2023-05-02T09:54:39;5.20;;;1.10;;
47161;SDS011;32921;53.256;8.198;2023-05-02T09:57:05;7.68;;;1.38;;
47161;SDS011;32921;53.256;8.198;2023-05-02T09:59:31;6.15;;;1.17;;
47161;SDS011;32921;53.256;8.198;2023-05-02T10:01:58;6.93;;;0.95;;
47161;SDS011;32921;53.256;8.198;2023-05-02T10:04:25;4.53;;;1.13;;
47161;SDS011;32921;53.256;8.198;2023-05-02T10:06:52;4.35;;;1.02;;
47161;SDS011;32921;53.256;8.198;2023-05-02T10:09:21;5.05;;;1.20;;
47161;SDS011;32921;53.256;8.198;2023-05-02T10:11:50;7.95;;;1.30;;
47161;SDS011;32921;53.256;8.198;2023-05-02T10:14:18;6.45;;;1.10;;
47161;SDS011;32921;53.256;8.198;2023-05-02T10:16:51;5.60;;;1.15;;
47161;SDS011;32921;53.256;8.198;2023-05-02T10:19:29;4.95;;;0.80;;
47161;SDS011;32921;53.256;8.198;2023-05-02T10:22:02;2.88;;;0.75;;
47161;SDS011;32921;53.256;8.198;2023-05-02T10:24:30;3.03;;;1.00;;
47161;SDS011;32921;53.256;8.198;2023-05-02T10:26:56;3.03;;;0.80;;
47161;SDS011;32921;53.256;8.198;2023-05-02T10:29:23;3.97;;;1.10;;
47161;SDS011;32921;53.256;8.198;2023-05-02T10:31:52;5.60;;;1.30;;
47161;SDS011;32921;53.256;8.198;2023-05-02T10:34:19;4.80;;;1.13;;
47161;SDS011;32921;53.256;8.198;2023-05-02T10:36:46;6.53;;;1.30;;
47161;SDS011;32921;53.256;8.198;2023-05-02T10:39:12;4.72;;;1.00;;
47161;SDS011;32921;53.256;8.198;2023-05-02T10:41:38;5.80;;;1.20;;
47161;SDS011;32921;53.256;8.198;2023-05-02T10:44:05;4.97;;;1.13;;
47161;SDS011;32921;53.256;8.198;2023-05-02T10:46:33;4.78;;;1.10;;
47161;SDS011;32921;53.256;8.198;2023-05-02T10:49:08;11.80;;;1.50;;
47161;SDS011;32921;53.256;8.198;2023-05-02T10:51:35;5.80;;;1.20;;
47161;SDS011;32921;53.256;8.198;2023-05-02T10:59:40;5.88;;;1.50;;
47161;SDS011;32921;53.256;8.198;2023-05-02T11:07:28;4.22;;;1.05;;
47161;SDS011;32921;53.256;8.198;2023-05-02T11:12:53;10.88;;;2.00;;
47161;SDS011;32921;53.256;8.198;2023-05-02T11:20:36;9.07;;;1.60;;
47161;SDS011;32921;53.256;8.198;2023-05-02T11:25:38;6.75;;;1.15;;
47161;SDS011;32921;53.256;8.198;2023-05-02T11:31:06;7.20;;;1.50;;
47161;SDS011;32921;53.256;8.198;2023-05-02T11:33:34;5.13;;;1.13;;
47161;SDS011;32921;53.256;8.198;2023-05-02T11:35:59;7.10;;;1.35;;
47161;SDS011;32921;53.256;8.198;2023-05-02T11:38:26;8.35;;;1.17;;
47161;SDS011;32921;53.256;8.198;2023-05-02T11:41:02;6.28;;;1.40;;
47161;SDS011;32921;53.256;8.198;2023-05-02T11:43:28;7.70;;;1.20;;
47161;SDS011;32921;53.256;8.198;2023-05-02T11:45:54;5.60;;;1.30;;
47161;SDS011;32921;53.256;8.198;2023-05-02T11:48:22;5.57;;;1.40;;
47161;SDS011;32921;53.256;8.198;2023-05-02T11:50:52;5.40;;;0.95;;
47161;SDS011;32921;53.256;8.198;2023-05-02T11:53:19;7.40;;;1.23;;
47161;SDS011;32921;53.256;8.198;2023-05-02T11:55:51;4.82;;;0.88;;
47161;SDS011;32921;53.256;8.198;2023-05-02T11:58:19;3.47;;;1.00;;
47161;SDS011;32921;53.256;8.198;2023-05-02T12:00:46;8.27;;;1.50;;
47161;SDS011;32921;53.256;8.198;2023-05-02T12:03:23;7.35;;;1.13;;
47161;SDS011;32921;53.256;8.198;2023-05-02T12:05:50;9.75;;;1.30;;
47161;SDS011;32921;53.256;8.198;2023-05-02T12:08:17;4.35;;;0.90;;
47161;SDS011;32921;53.256;8.198;2023-05-02T12:10:44;4.80;;;1.10;;
47161;SDS011;32921;53.256;8.198;2023-05-02T12:13:10;3.50;;;0.93;;
47161;SDS011;32921;53.256;8.198;2023-05-02T12:15:35;6.32;;;1.00;;
47161;SDS011;32921;53.256;8.198;2023-05-02T12:18:01;7.32;;;0.95;;
47161;SDS011;32921;53.256;8.198;2023-05-02T12:20:27;6.13;;;0.80;;
47161;SDS011;32921;53.256;8.198;2023-05-02T12:22:53;5.25;;;1.00;;
47161;SDS011;32921;53.256;8.198;2023-05-02T12:25:19;5.88;;;1.00;;
47161;SDS011;32921;53.256;8.198;2023-05-02T12:27:57;1.90;;;0.73;;
47161;SDS011;32921;53.256;8.198;2023-05-02T12:30:27;3.70;;;0.80;;
47161;SDS011;32921;53.256;8.198;2023-05-02T12:32:57;10.90;;;1.15;;
47161;SDS011;32921;53.256;8.198;2023-05-02T12:35:25;2.72;;;0.63;;
47161;SDS011;32921;53.256;8.198;2023-05-02T12:37:51;4.47;;;0.70;;
47161;SDS011;32921;53.256;8.198;2023-05-02T12:40:20;2.28;;;0.70;;
47161;SDS011;32921;53.256;8.198;2023-05-02T12:42:58;4.25;;;0.82;;
47161;SDS011;32921;53.256;8.198;2023-05-02T12:45:30;4.30;;;0.80;;
47161;SDS011;32921;53.256;8.198;2023-05-02T12:47:59;5.00;;;0.90;;
47161;SDS011;32921;53.256;8.198;2023-05-02T12:50:35;4.97;;;1.00;;
47161;SDS011;32921;53.256;8.198;2023-05-02T12:53:02;3.90;;;0.90;;
47161;SDS011;32921;53.256;8.198;2023-05-02T12:55:27;4.88;;;1.00;;
47161;SDS011;32921;53.256;8.198;2023-05-02T12:58:03;4.13;;;0.80;;
47161;SDS011;32921;53.256;8.198;2023-05-02T13:00:30;7.90;;;1.30;;
47161;SDS011;32921;53.256;8.198;2023-05-02T13:02:57;1.38;;;0.55;;
47161;SDS011;32921;53.256;8.198;2023-05-02T13:05:22;4.88;;;0.60;;
47161;SDS011;32921;53.256;8.198;2023-05-02T13:07:48;5.80;;;1.00;;
47161;SDS011;32921;53.256;8.198;2023-05-02T13:10:14;5.90;;;0.90;;
47161;SDS011;32921;53.256;8.198;2023-05-02T13:12:42;3.03;;;0.70;;
47161;SDS011;32921;53.256;8.198;2023-05-02T13:15:08;7.13;;;1.13;;
47161;SDS011;32921;53.256;8.198;2023-05-02T13:17:34;5.78;;;1.00;;
47161;SDS011;32921;53.256;8.198;2023-05-02T13:20:00;8.73;;;1.05;;
47161;SDS011;32921;53.256;8.198;2023-05-02T13:22:26;6.35;;;1.20;;
47161;SDS011;32921;53.256;8.198;2023-05-02T13:24:52;6.38;;;0.82;;
47161;SDS011;32921;53.256;8.198;2023-05-02T13:27:17;6.55;;;1.10;;
47161;SDS011;32921;53.256;8.198;2023-05-02T13:29:44;5.05;;;1.00;;
47161;SDS011;32921;53.256;8.198;2023-05-02T13:32:09;5.82;;;1.10;;
47161;SDS011;32921;53.256;8.198;2023-05-02T13:34:35;5.90;;;1.00;;
47161;SDS011;32921;53.256;8.198;2023-05-02T13:37:01;4.97;;;0.73;;
47161;SDS011;32921;53.256;8.198;2023-05-02T13:39:27;6.60;;;1.42;;
47161;SDS011;32921;53.256;8.198;2023-05-02T13:41:52;4.88;;;1.00;;
47161;SDS011;32921;53.256;8.198;2023-05-02T13:44:18;5.53;;;0.80;;
47161;SDS011;32921;53.256;8.198;2023-05-02T13:46:43;7.40;;;1.08;;
47161;SDS011;32921;53.256;8.198;2023-05-02T13:49:09;3.85;;;0.77;;
47161;SDS011;32921;53.256;8.198;2023-05-02T13:51:34;3.80;;;0.88;;
47161;SDS011;32921;53.256;8.198;2023-05-02T13:54:00;8.13;;;1.30;;
47161;SDS011;32921;53.256;8.198;2023-05-02T13:56:26;6.05;;;0.95;;
47161;SDS011;32921;53.256;8.198;2023-05-02T13:58:51;5.00;;;0.98;;
47161;SDS011;32921;53.256;8.198;2023-05-02T14:01:17;5.07;;;0.95;;
47161;SDS011;32921;53.256;8.198;2023-05-02T14:03:43;2.83;;;0.60;;
47161;SDS011;32921;53.256;8.198;2023-05-02T14:06:09;6.93;;;1.20;;
47161;SDS011;32921;53.256;8.198;2023-05-02T14:08:34;5.72;;;1.08;;
47161;SDS011;32921;53.256;8.198;2023-05-02T14:11:00;2.78;;;0.80;;
47161;SDS011;32921;53.256;8.198;2023-05-02T14:13:25;6.38;;;1.10;;
47161;SDS011;32921;53.256;8.198;2023-05-02T14:15:54;4.88;;;1.55;;
47161;SDS011;32921;53.256;8.198;2023-05-02T14:18:19;5.50;;;1.10;;
47161;SDS011;32921;53.256;8.198;2023-05-02T14:20:45;3.28;;;1.58;;
47161;SDS011;32921;53.256;8.198;2023-05-02T14:23:11;7.45;;;1.35;;
47161;SDS011;32921;53.256;8.198;2023-05-02T14:25:37;8.25;;;2.25;;
47161;SDS011;32921;53.256;8.198;2023-05-02T14:28:03;3.58;;;1.13;;
47161;SDS011;32921;53.256;8.198;2023-05-02T14:30:29;3.60;;;0.80;;
47161;SDS011;32921;53.256;8.198;2023-05-02T14:32:55;3.85;;;0.65;;
47161;SDS011;32921;53.256;8.198;2023-05-02T14:35:21;3.20;;;0.80;;
47161;SDS011;32921;53.256;8.198;2023-05-02T14:37:47;5.90;;;1.13;;
47161;SDS011;32921;53.256;8.198;2023-05-02T14:40:12;3.08;;;0.73;;
47161;SDS011;32921;53.256;8.198;2023-05-02T14:42:39;5.80;;;0.70;;
47161;SDS011;32921;53.256;8.198;2023-05-02T14:45:05;4.72;;;0.75;;
47161;SDS011;32921;53.256;8.198;2023-05-02T14:47:32;3.92;;;0.60;;
47161;SDS011;32921;53.256;8.198;2023-05-02T14:49:57;3.35;;;0.75;;
47161;SDS011;32921;53.256;8.198;2023-05-02T14:52:23;2.45;;;0.60;;
47161;SDS011;32921;53.256;8.198;2023-05-02T14:54:49;2.83;;;0.60;;
47161;SDS011;32921;53.256;8.198;2023-05-02T14:57:14;4.85;;;0.68;;
47161;SDS011;32921;53.256;8.198;2023-05-02T14:59:40;1.95;;;0.80;;
47161;SDS011;32921;53.256;8.198;2023-05-02T15:02:06;5.35;;;0.90;;
47161;SDS011;32921;53.256;8.198;2023-05-02T15:04:32;2.75;;;0.60;;
47161;SDS011;32921;53.256;8.198;2023-05-02T15:07:01;4.05;;;0.77;;
47161;SDS011;32921;53.256;8.198;2023-05-02T15:09:27;3.88;;;0.95;;
47161;SDS011;32921;53.256;8.198;2023-05-02T15:11:53;4.97;;;1.30;;
47161;SDS011;32921;53.256;8.198;2023-05-02T15:14:19;8.00;;;0.80;;
47161;SDS011;32921;53.256;8.198;2023-05-02T15:16:44;5.28;;;0.80;;
47161;SDS011;32921;53.256;8.198;2023-05-02T15:19:10;5.78;;;1.25;;
47161;SDS011;32921;53.256;8.198;2023-05-02T15:21:36;5.05;;;0.82;;
47161;SDS011;32921;53.256;8.198;2023-05-02T15:24:01;5.72;;;1.00;;